sensor_id;sensor_type;location;lat;lon;timestamp;temperature;humidity
30385;DHT22;17181;51.002;4.096;2023-11-21T07:19:26;11.10;99.90
30385;DHT22;17181;51.002;4.096;2023-11-21T11:59:05;13.00;99.90
30385;DHT22;17181;51.002;4.096;2023-11-21T12:01:35;13.00;99.90
30385;DHT22;17181;51.002;4.096;2023-11-21T12:07:00;13.00;99.90
30385;DHT22;17181;51.002;4.096;2023-11-21T12:09:30;13.00;99.90
30385;DHT22;17181;51.002;4.096;2023-11-21T12:11:57;13.00;99.90
30385;DHT22;17181;51.002;4.096;2023-11-21T12:14:23;12.90;99.90
30385;DHT22;17181;51.002;4.096;2023-11-21T12:16:50;12.90;99.90
30385;DHT22;17181;51.002;4.096;2023-11-21T12:19:17;12.90;99.90
30385;DHT22;17181;51.002;4.096;2023-11-21T12:21:44;13.00;99.90
30385;DHT22;17181;51.002;4.096;2023-11-21T12:24:10;13.00;99.90
30385;DHT22;17181;51.002;4.096;2023-11-21T12:26:40;13.10;99.90
30385;DHT22;17181;51.002;4.096;2023-11-21T12:29:05;13.10;99.90
30385;DHT22;17181;51.002;4.096;2023-11-21T12:31:33;13.10;99.90
30385;DHT22;17181;51.002;4.096;2023-11-21T12:34:03;13.20;99.90
30385;DHT22;17181;51.002;4.096;2023-11-21T12:36:30;13.20;99.90
30385;DHT22;17181;51.002;4.096;2023-11-21T12:38:56;13.10;99.90
30385;DHT22;17181;51.002;4.096;2023-11-21T12:41:22;13.10;99.90
30385;DHT22;17181;51.002;4.096;2023-11-21T12:43:48;13.10;99.90
30385;DHT22;17181;51.002;4.096;2023-11-21T12:46:14;13.10;99.90
30385;DHT22;17181;51.002;4.096;2023-11-21T12:48:44;13.10;99.90
30385;DHT22;17181;51.002;4.096;2023-11-21T12:51:15;13.10;99.90
30385;DHT22;17181;51.002;4.096;2023-11-21T12:53:42;13.00;99.90
30385;DHT22;17181;51.002;4.096;2023-11-21T12:56:12;13.00;99.90
30385;DHT22;17181;51.002;4.096;2023-11-21T12:58:38;12.90;99.90
30385;DHT22;17181;51.002;4.096;2023-11-21T13:01:08;12.90;99.90
30385;DHT22;17181;51.002;4.096;2023-11-21T13:03:40;12.90;99.90
30385;DHT22;17181;51.002;4.096;2023-11-21T13:06:08;12.90;99.90
30385;DHT22;17181;51.002;4.096;2023-11-21T13:08:33;12.80;99.90
30385;DHT22;17181;51.002;4.096;2023-11-21T13:10:59;12.80;99.90
30385;DHT22;17181;51.002;4.096;2023-11-21T13:13:30;12.70;99.90
30385;DHT22;17181;51.002;4.096;2023-11-21T13:16:00;12.80;99.90
30385;DHT22;17181;51.002;4.096;2023-11-21T13:18:29;12.70;99.90
30385;DHT22;17181;51.002;4.096;2023-11-21T13:21:04;12.80;99.90
30385;DHT22;17181;51.002;4.096;2023-11-21T13:23:41;12.70;99.90
30385;DHT22;17181;51.002;4.096;2023-11-21T13:26:07;12.70;99.90
30385;DHT22;17181;51.002;4.096;2023-11-21T13:28:35;12.70;99.90
30385;DHT22;17181;51.002;4.096;2023-11-21T13:31:02;12.70;99.90
30385;DHT22;17181;51.002;4.096;2023-11-21T13:33:35;12.60;99.90
30385;DHT22;17181;51.002;4.096;2023-11-21T13:36:06;12.60;99.90
30385;DHT22;17181;51.002;4.096;2023-11-21T13:38:35;12.60;99.90
30385;DHT22;17181;51.002;4.096;2023-11-21T13:41:03;12.60;99.90
30385;DHT22;17181;51.002;4.096;2023-11-21T13:43:32;12.50;99.90
30385;DHT22;17181;51.002;4.096;2023-11-21T13:45:59;12.50;99.90
30385;DHT22;17181;51.002;4.096;2023-11-21T13:48:36;12.50;99.90
30385;DHT22;17181;51.002;4.096;2023-11-21T13:51:09;12.50;99.90
30385;DHT22;17181;51.002;4.096;2023-11-21T13:53:47;12.50;99.90
30385;DHT22;17181;51.002;4.096;2023-11-21T13:56:15;12.50;99.90
30385;DHT22;17181;51.002;4.096;2023-11-21T13:58:53;12.50;99.90
30385;DHT22;17181;51.002;4.096;2023-11-21T14:01:21;12.50;99.90
30385;DHT22;17181;51.002;4.096;2023-11-21T14:04:09;12.50;99.90
30385;DHT22;17181;51.002;4.096;2023-11-21T14:06:51;12.50;99.90
30385;DHT22;17181;51.002;4.096;2023-11-21T14:09:23;12.50;99.90
30385;DHT22;17181;51.002;4.096;2023-11-21T14:11:58;12.50;99.90
30385;DHT22;17181;51.002;4.096;2023-11-21T14:14:26;12.50;99.90
30385;DHT22;17181;51.002;4.096;2023-11-21T14:16:55;12.50;99.90
30385;DHT22;17181;51.002;4.096;2023-11-21T14:19:21;12.40;99.90
30385;DHT22;17181;51.002;4.096;2023-11-21T14:21:52;12.40;99.90
30385;DHT22;17181;51.002;4.096;2023-11-21T14:24:18;12.40;99.90
30385;DHT22;17181;51.002;4.096;2023-11-21T14:26:47;12.40;99.90
30385;DHT22;17181;51.002;4.096;2023-11-21T14:29:15;12.40;99.90
30385;DHT22;17181;51.002;4.096;2023-11-21T14:31:44;12.30;99.90
30385;DHT22;17181;51.002;4.096;2023-11-21T14:34:12;12.30;99.90
30385;DHT22;17181;51.002;4.096;2023-11-21T14:36:40;12.30;99.90
30385;DHT22;17181;51.002;4.096;2023-11-21T14:39:06;12.30;99.90
30385;DHT22;17181;51.002;4.096;2023-11-21T14:41:35;12.20;99.90
30385;DHT22;17181;51.002;4.096;2023-11-21T14:44:04;12.30;99.90
30385;DHT22;17181;51.002;4.096;2023-11-21T14:46:32;12.20;99.90
30385;DHT22;17181;51.002;4.096;2023-11-21T14:49:00;12.20;99.90
30385;DHT22;17181;51.002;4.096;2023-11-21T14:51:45;12.20;99.90
30385;DHT22;17181;51.002;4.096;2023-11-21T14:54:32;12.20;99.90
30385;DHT22;17181;51.002;4.096;2023-11-21T14:57:21;12.20;99.90
30385;DHT22;17181;51.002;4.096;2023-11-21T14:59:49;12.20;99.90
30385;DHT22;17181;51.002;4.096;2023-11-21T15:02:23;12.20;99.90
30385;DHT22;17181;51.002;4.096;2023-11-21T15:05:09;12.20;99.90
30385;DHT22;17181;51.002;4.096;2023-11-21T15:07:40;12.20;99.90
30385;DHT22;17181;51.002;4.096;2023-11-21T15:10:07;12.20;99.90
30385;DHT22;17181;51.002;4.096;2023-11-21T15:12:40;12.20;99.90
30385;DHT22;17181;51.002;4.096;2023-11-21T15:15:07;12.20;99.90
30385;DHT22;17181;51.002;4.096;2023-11-21T15:17:36;12.20;99.90
30385;DHT22;17181;51.002;4.096;2023-11-21T15:20:03;12.20;99.90
30385;DHT22;17181;51.002;4.096;2023-11-21T15:22:32;12.20;99.90
30385;DHT22;17181;51.002;4.096;2023-11-21T15:24:58;12.10;99.90
30385;DHT22;17181;51.002;4.096;2023-11-21T15:27:24;12.10;99.90
30385;DHT22;17181;51.002;4.096;2023-11-21T15:29:50;12.10;99.90
30385;DHT22;17181;51.002;4.096;2023-11-21T15:32:16;12.10;99.90
30385;DHT22;17181;51.002;4.096;2023-11-21T15:34:42;12.10;99.90
30385;DHT22;17181;51.002;4.096;2023-11-21T15:37:08;12.10;99.90
30385;DHT22;17181;51.002;4.096;2023-11-21T15:39:40;11.90;99.90
30385;DHT22;17181;51.002;4.096;2023-11-21T15:42:05;12.10;99.90
30385;DHT22;17181;51.002;4.096;2023-11-21T15:44:33;12.10;99.90
30385;DHT22;17181;51.002;4.096;2023-11-21T15:46:59;12.10;99.90
30385;DHT22;17181;51.002;4.096;2023-11-21T15:49:25;12.10;99.90
30385;DHT22;17181;51.002;4.096;2023-11-21T15:51:53;12.10;99.90
30385;DHT22;17181;51.002;4.096;2023-11-21T15:54:20;12.10;99.90
30385;DHT22;17181;51.002;4.096;2023-11-21T15:56:50;12.10;99.90
30385;DHT22;17181;51.002;4.096;2023-11-21T15:59:17;12.10;99.90
30385;DHT22;17181;51.002;4.096;2023-11-21T16:01:44;12.10;99.90
30385;DHT22;17181;51.002;4.096;2023-11-21T16:04:13;12.10;99.90
30385;DHT22;17181;51.002;4.096;2023-11-21T16:06:46;12.10;99.90
30385;DHT22;17181;51.002;4.096;2023-11-21T16:09:15;12.10;99.90
30385;DHT22;17181;51.002;4.096;2023-11-21T16:12:04;12.00;99.90
30385;DHT22;17181;51.002;4.096;2023-11-21T16:14:36;12.00;99.90
30385;DHT22;17181;51.002;4.096;2023-11-21T16:17:11;12.00;99.90
30385;DHT22;17181;51.002;4.096;2023-11-21T16:19:40;12.00;99.90
30385;DHT22;17181;51.002;4.096;2023-11-21T16:22:10;12.00;99.90
30385;DHT22;17181;51.002;4.096;2023-11-21T16:24:36;12.00;99.90
30385;DHT22;17181;51.002;4.096;2023-11-21T16:27:03;12.10;99.90
30385;DHT22;17181;51.002;4.096;2023-11-21T16:29:30;12.00;99.90
30385;DHT22;17181;51.002;4.096;2023-11-21T16:31:56;12.00;99.90
30385;DHT22;17181;51.002;4.096;2023-11-21T16:34:22;12.00;99.90
30385;DHT22;17181;51.002;4.096;2023-11-21T16:36:48;12.00;99.90
30385;DHT22;17181;51.002;4.096;2023-11-21T16:39:15;12.00;99.90
30385;DHT22;17181;51.002;4.096;2023-11-21T16:41:42;11.90;99.90
30385;DHT22;17181;51.002;4.096;2023-11-21T16:44:17;11.90;99.90
30385;DHT22;17181;51.002;4.096;2023-11-21T16:46:49;11.90;99.90
30385;DHT22;17181;51.002;4.096;2023-11-21T16:49:18;11.90;99.90
30385;DHT22;17181;51.002;4.096;2023-11-21T16:51:45;11.90;99.90
30385;DHT22;17181;51.002;4.096;2023-11-21T16:54:14;11.90;99.90
30385;DHT22;17181;51.002;4.096;2023-11-21T16:56:46;12.00;99.90
30385;DHT22;17181;51.002;4.096;2023-11-21T16:59:13;11.80;99.90
30385;DHT22;17181;51.002;4.096;2023-11-21T17:01:39;11.80;99.90
30385;DHT22;17181;51.002;4.096;2023-11-21T17:04:04;11.80;99.90
30385;DHT22;17181;51.002;4.096;2023-11-21T17:06:31;11.80;99.90
30385;DHT22;17181;51.002;4.096;2023-11-21T17:08:57;11.80;99.90
30385;DHT22;17181;51.002;4.096;2023-11-21T17:11:29;11.80;99.90
30385;DHT22;17181;51.002;4.096;2023-11-21T17:13:55;11.80;99.90
30385;DHT22;17181;51.002;4.096;2023-11-21T17:16:21;11.80;99.90
30385;DHT22;17181;51.002;4.096;2023-11-21T17:18:47;11.80;99.90
30385;DHT22;17181;51.002;4.096;2023-11-21T17:21:13;11.70;99.90
30385;DHT22;17181;51.002;4.096;2023-11-21T17:23:39;11.70;99.90
30385;DHT22;17181;51.002;4.096;2023-11-21T17:26:05;11.70;99.90
30385;DHT22;17181;51.002;4.096;2023-11-21T17:28:31;11.70;99.90
30385;DHT22;17181;51.002;4.096;2023-11-21T17:30:56;11.70;99.90
30385;DHT22;17181;51.002;4.096;2023-11-21T17:33:22;11.60;99.90
30385;DHT22;17181;51.002;4.096;2023-11-21T17:35:48;11.70;99.90
30385;DHT22;17181;51.002;4.096;2023-11-21T17:38:14;11.60;99.90
30385;DHT22;17181;51.002;4.096;2023-11-21T17:40:40;11.60;99.90
30385;DHT22;17181;51.002;4.096;2023-11-21T17:43:06;11.60;99.90
30385;DHT22;17181;51.002;4.096;2023-11-21T17:45:33;11.60;99.90
30385;DHT22;17181;51.002;4.096;2023-11-21T17:47:59;11.60;99.90
30385;DHT22;17181;51.002;4.096;2023-11-21T17:50:25;11.60;99.90
30385;DHT22;17181;51.002;4.096;2023-11-21T17:52:51;11.60;99.90
30385;DHT22;17181;51.002;4.096;2023-11-21T17:55:17;11.60;99.90
30385;DHT22;17181;51.002;4.096;2023-11-21T17:57:44;11.60;99.90
30385;DHT22;17181;51.002;4.096;2023-11-21T18:00:13;11.60;99.90
30385;DHT22;17181;51.002;4.096;2023-11-21T18:02:42;11.60;99.90
30385;DHT22;17181;51.002;4.096;2023-11-21T18:05:08;11.60;99.90
30385;DHT22;17181;51.002;4.096;2023-11-21T18:07:38;11.60;99.90
30385;DHT22;17181;51.002;4.096;2023-11-21T18:10:06;11.60;99.90
30385;DHT22;17181;51.002;4.096;2023-11-21T18:12:33;11.60;99.90
30385;DHT22;17181;51.002;4.096;2023-11-21T18:14:59;11.60;99.90
30385;DHT22;17181;51.002;4.096;2023-11-21T18:17:25;11.60;99.90
30385;DHT22;17181;51.002;4.096;2023-11-21T18:19:50;11.60;99.90
30385;DHT22;17181;51.002;4.096;2023-11-21T18:22:20;11.60;99.90
30385;DHT22;17181;51.002;4.096;2023-11-21T18:24:51;11.60;99.90
30385;DHT22;17181;51.002;4.096;2023-11-21T18:27:23;11.60;99.90
30385;DHT22;17181;51.002;4.096;2023-11-21T18:29:58;11.60;99.90
30385;DHT22;17181;51.002;4.096;2023-11-21T18:32:28;11.60;99.90
30385;DHT22;17181;51.002;4.096;2023-11-21T18:34:53;11.60;99.90
30385;DHT22;17181;51.002;4.096;2023-11-21T19:06:08;11.50;99.90
30385;DHT22;17181;51.002;4.096;2023-11-21T19:08:43;11.60;99.90
